Time;durP1;ratioP1;P1;durP2;ratioP2;P2;SDS_P1;SDS_P2;PMS_P1;PMS_P2;Temp;Humidity;BMP_temperature;BMP_pressure;BME280_temperature;BME280_humidity;BME280_pressure;Samples;Min_cycle;Max_cycle;Signal;HPM_P1;HPM_P2
2021/07/03 00:00:37;;;;;;;12.73;7.93;;;15.30;99.90;;;;;;5095457;28;20024;-74
2021/07/03 00:03:03;;;;;;;15.00;8.52;;;15.30;99.90;;;;;;5094158;28;20166;-75
2021/07/03 00:05:29;;;;;;;11.30;7.82;;;15.30;99.90;;;;;;5094016;28;20027;-75
2021/07/03 00:07:55;;;;;;;12.38;9.50;;;15.30;99.90;;;;;;5095305;28;20028;-75
2021/07/03 00:10:21;;;;;;;14.15;8.40;;;15.30;99.90;;;;;;5094017;28;20068;-74
2021/07/03 00:12:47;;;;;;;12.70;9.27;;;15.30;99.90;;;;;;5094004;28;20095;-74
2021/07/03 00:15:21;;;;;;;11.88;8.32;;;15.30;99.90;;;;;;5096533;27;20449;-75
2021/07/03 00:17:48;;;;;;;15.77;9.48;;;15.30;99.90;;;;;;5093903;28;20039;-75
2021/07/03 00:20:14;;;;;;;15.25;8.93;;;15.40;99.90;;;;;;5093859;28;20024;-75
2021/07/03 00:22:39;;;;;;;15.07;8.35;;;15.40;99.90;;;;;;5094241;28;20034;-75
2021/07/03 00:25:06;;;;;;;14.18;9.07;;;15.50;99.90;;;;;;5114644;28;20023;-75
2021/07/03 00:27:32;;;;;;;11.95;9.23;;;15.50;99.90;;;;;;5114089;28;20043;-75
2021/07/03 00:29:58;;;;;;;15.02;8.82;;;15.50;99.90;;;;;;5115082;28;20027;-75
2021/07/03 00:32:23;;;;;;;16.80;9.38;;;15.50;99.90;;;;;;5115217;28;20381;-75
2021/07/03 00:34:49;;;;;;;12.65;8.45;;;15.50;99.90;;;;;;5114043;28;20024;-75
2021/07/03 00:37:16;;;;;;;14.23;9.30;;;15.50;99.90;;;;;;5115126;28;20062;-75
2021/07/03 00:39:42;;;;;;;13.25;9.23;;;15.60;99.90;;;;;;5115337;28;20024;-75
2021/07/03 00:42:08;;;;;;;13.18;9.68;;;15.60;99.90;;;;;;5115033;28;20066;-75
2021/07/03 00:44:37;;;;;;;14.38;9.20;;;15.60;99.90;;;;;;5113722;28;20040;-75
2021/07/03 00:47:05;;;;;;;17.40;11.55;;;15.60;99.90;;;;;;5115319;28;20129;-75
2021/07/03 00:49:32;;;;;;;14.15;9.38;;;15.60;99.90;;;;;;5113090;28;20103;-75
2021/07/03 00:51:58;;;;;;;13.65;8.57;;;15.60;99.90;;;;;;5113332;28;20034;-75
2021/07/03 00:54:24;;;;;;;12.00;9.18;;;15.70;99.90;;;;;;5114811;28;20027;-76
2021/07/03 00:57:02;;;;;;;12.40;7.53;;;15.70;99.90;;;;;;5113558;28;20046;-75
2021/07/03 00:59:45;;;;;;;15.50;8.68;;;15.70;99.90;;;;;;5114799;28;20019;-75
2021/07/03 01:02:12;;;;;;;12.65;8.45;;;15.70;99.90;;;;;;5114545;28;20107;-74
2021/07/03 01:04:39;;;;;;;12.27;8.77;;;15.70;99.90;;;;;;5112937;28;20070;-75
2021/07/03 01:07:06;;;;;;;10.75;8.45;;;15.70;99.90;;;;;;5104543;28;20027;-75
2021/07/03 01:09:32;;;;;;;12.00;9.00;;;15.70;99.90;;;;;;5093694;28;20020;-76
2021/07/03 01:11:58;;;;;;;13.07;9.85;;;15.70;99.90;;;;;;5092795;28;20035;-75
2021/07/03 01:14:24;;;;;;;15.82;9.88;;;15.70;99.90;;;;;;5094608;28;20059;-75
2021/07/03 01:16:50;;;;;;;16.33;11.05;;;15.80;99.90;;;;;;5113171;28;20047;-75
2021/07/03 01:19:16;;;;;;;14.82;10.43;;;15.70;99.90;;;;;;5113079;28;20028;-75
2021/07/03 01:21:56;;;;;;;13.65;10.23;;;15.70;99.90;;;;;;5113918;28;20031;-74
2021/07/03 01:24:23;;;;;;;15.95;10.20;;;15.60;99.90;;;;;;5112405;28;20059;-74
2021/07/03 01:26:54;;;;;;;16.77;9.85;;;15.60;99.90;;;;;;5112496;28;20185;-75
2021/07/03 01:29:22;;;;;;;13.43;9.35;;;15.60;99.90;;;;;;5113700;28;20016;-75
2021/07/03 01:31:50;;;;;;;17.55;11.48;;;15.60;99.90;;;;;;5109693;28;20119;-74
2021/07/03 01:34:18;;;;;;;17.10;11.48;;;15.60;99.90;;;;;;5094880;28;20046;-75
2021/07/03 01:36:44;;;;;;;29.90;12.23;;;15.60;99.90;;;;;;5091772;28;20028;-75
2021/07/03 01:39:10;;;;;;;13.38;10.45;;;15.60;99.90;;;;;;5093064;28;20075;-76
2021/07/03 01:41:36;;;;;;;17.23;12.77;;;15.60;99.90;;;;;;5093579;28;20423;-75
2021/07/03 01:44:03;;;;;;;13.45;10.23;;;15.60;99.90;;;;;;5093550;28;20032;-75
2021/07/03 01:46:29;;;;;;;18.52;11.77;;;15.60;99.90;;;;;;5092140;28;20020;-75
2021/07/03 01:49:02;;;;;;;15.30;10.80;;;15.60;99.90;;;;;;5093517;28;20020;-75
2021/07/03 01:51:28;;;;;;;13.57;10.35;;;15.60;99.90;;;;;;5093455;28;20028;-75
2021/07/03 01:53:53;;;;;;;14.30;9.25;;;15.60;99.90;;;;;;5092229;28;20012;-75
2021/07/03 01:56:19;;;;;;;14.75;9.85;;;15.70;99.90;;;;;;5093285;28;20089;-75
2021/07/03 01:58:45;;;;;;;15.43;11.18;;;15.60;99.90;;;;;;5093502;28;20111;-76
2021/07/03 02:01:10;;;;;;;12.80;10.00;;;15.60;99.90;;;;;;5093216;28;20381;-75
2021/07/03 02:03:36;;;;;;;16.42;10.40;;;15.60;99.90;;;;;;5091954;28;20058;-75
2021/07/03 02:06:04;;;;;;;14.35;10.45;;;15.60;99.90;;;;;;5093137;28;20042;-75
2021/07/03 02:08:30;;;;;;;17.90;10.40;;;15.60;99.90;;;;;;5093170;28;20031;-75
2021/07/03 02:10:56;;;;;;;15.27;10.32;;;15.60;99.90;;;;;;5093005;28;20024;-75
2021/07/03 02:13:23;;;;;;;12.00;9.70;;;15.60;99.90;;;;;;5093311;28;20044;-75
2021/07/03 02:15:49;;;;;;;14.07;10.25;;;15.60;99.90;;;;;;5093149;28;20031;-75
2021/07/03 02:18:14;;;;;;;17.48;10.27;;;15.60;99.90;;;;;;5092478;28;20020;-75
2021/07/03 02:20:40;;;;;;;14.20;10.18;;;15.60;99.90;;;;;;5093472;28;20032;-75
2021/07/03 02:23:06;;;;;;;17.70;12.00;;;15.60;99.90;;;;;;5091623;28;20036;-75
2021/07/03 02:25:32;;;;;;;13.32;9.95;;;15.60;99.90;;;;;;5092955;28;20024;-75
2021/07/03 02:27:58;;;;;;;17.65;11.63;;;15.60;99.90;;;;;;5093016;28;20073;-75
2021/07/03 02:30:24;;;;;;;21.52;12.88;;;15.60;99.90;;;;;;5092925;28;20518;-76
2021/07/03 02:32:50;;;;;;;17.02;12.57;;;15.60;99.90;;;;;;5092954;28;20026;-75
2021/07/03 02:35:18;;;;;;;19.77;13.30;;;15.70;99.90;;;;;;5092881;28;20081;-75
2021/07/03 02:37:44;;;;;;;19.35;13.20;;;15.70;99.90;;;;;;5092911;28;20533;-75
2021/07/03 02:40:13;;;;;;;21.10;13.43;;;15.60;99.90;;;;;;5092780;28;20485;-76
2021/07/03 02:42:39;;;;;;;19.58;14.38;;;15.60;99.90;;;;;;5092741;28;20028;-75
2021/07/03 02:45:07;;;;;;;20.25;13.48;;;15.60;99.90;;;;;;5091517;28;20020;-75
2021/07/03 02:47:34;;;;;;;20.20;14.88;;;15.60;99.90;;;;;;5094667;28;20039;-75
2021/07/03 02:50:00;;;;;;;20.67;14.40;;;15.60;99.90;;;;;;5096969;28;20063;-76
2021/07/03 02:52:25;;;;;;;22.38;15.57;;;15.60;99.90;;;;;;5096748;28;20428;-75
2021/07/03 02:54:51;;;;;;;20.48;14.38;;;15.60;99.90;;;;;;5095661;28;20034;-75
2021/07/03 02:57:17;;;;;;;22.80;14.70;;;15.60;99.90;;;;;;5096700;28;20035;-75
2021/07/03 02:59:43;;;;;;;24.20;15.80;;;15.60;99.90;;;;;;5096796;28;20051;-76
2021/07/03 03:02:08;;;;;;;22.52;13.93;;;15.60;99.90;;;;;;5096669;28;20027;-75
2021/07/03 03:04:37;;;;;;;27.02;15.93;;;15.60;99.90;;;;;;5096594;28;20043;-76
2021/07/03 03:07:03;;;;;;;27.65;16.10;;;15.60;99.90;;;;;;5095280;28;20074;-74
2021/07/03 03:09:29;;;;;;;32.30;17.70;;;15.70;99.90;;;;;;5096416;28;20030;-75
2021/07/03 03:11:55;;;;;;;27.63;17.83;;;15.60;99.90;;;;;;5115602;28;20433;-75
2021/07/03 03:14:20;;;;;;;27.40;16.83;;;15.60;99.90;;;;;;5116784;28;20449;-76
2021/07/03 03:16:46;;;;;;;22.30;17.58;;;15.60;99.90;;;;;;5115633;28;20115;-75
2021/07/03 03:19:12;;;;;;;26.88;18.70;;;15.60;99.90;;;;;;5114963;28;20076;-76
2021/07/03 03:21:37;;;;;;;24.45;16.55;;;15.60;99.90;;;;;;5116699;28;20103;-75
2021/07/03 03:24:03;;;;;;;26.60;18.58;;;15.60;99.90;;;;;;5115359;28;20070;-77
2021/07/03 03:26:29;;;;;;;27.05;18.95;;;15.70;99.90;;;;;;5116433;28;20024;-75
2021/07/03 03:28:54;;;;;;;24.02;16.20;;;15.60;99.90;;;;;;5116587;28;20124;-76
2021/07/03 03:31:20;;;;;;;24.45;16.65;;;15.70;99.90;;;;;;5115224;28;20100;-75
2021/07/03 03:33:46;;;;;;;25.33;17.08;;;15.70;99.90;;;;;;5115283;28;20490;-75
2021/07/03 03:36:12;;;;;;;27.80;16.45;;;15.70;99.90;;;;;;5114483;28;20027;-75
2021/07/03 03:38:37;;;;;;;27.98;17.60;;;15.70;99.90;;;;;;5095936;27;20393;-76
2021/07/03 03:41:03;;;;;;;19.48;15.05;;;15.80;99.90;;;;;;5095903;28;20020;-75
2021/07/03 03:43:29;;;;;;;24.02;15.45;;;15.80;99.90;;;;;;5095984;28;20063;-75
2021/07/03 03:45:54;;;;;;;20.80;13.57;;;15.80;99.90;;;;;;5094575;28;20024;-75
2021/07/03 03:48:20;;;;;;;20.15;13.57;;;15.80;99.90;;;;;;5094521;28;20119;-75
2021/07/03 03:50:46;;;;;;;16.80;12.65;;;16.00;99.90;;;;;;5095820;28;20062;-75
2021/07/03 03:53:11;;;;;;;17.00;13.40;;;16.00;99.90;;;;;;5094396;28;20027;-76
2021/07/03 03:55:37;;;;;;;15.82;12.68;;;16.00;99.90;;;;;;5094345;28;20440;-75
2021/07/03 03:58:03;;;;;;;16.42;12.07;;;16.10;99.90;;;;;;5094914;28;20028;-76
2021/07/03 04:00:28;;;;;;;17.55;13.80;;;16.10;99.90;;;;;;5095058;28;20056;-76
2021/07/03 04:02:54;;;;;;;15.98;12.88;;;16.00;99.90;;;;;;5107412;28;20036;-75
2021/07/03 04:05:19;;;;;;;17.15;12.68;;;16.10;99.90;;;;;;5114594;28;20015;-75
2021/07/03 04:07:45;;;;;;;18.55;13.35;;;16.10;99.90;;;;;;5115840;28;20031;-75
2021/07/03 04:10:13;;;;;;;23.23;13.82;;;16.10;99.90;;;;;;5115278;28;20023;-75
2021/07/03 04:12:40;;;;;;;18.80;13.40;;;16.10;99.90;;;;;;5115741;28;20027;-75
2021/07/03 04:15:07;;;;;;;18.58;14.02;;;16.10;99.90;;;;;;5114393;28;20481;-75
2021/07/03 04:17:33;;;;;;;19.17;13.15;;;16.00;99.90;;;;;;5115567;28;20077;-76
2021/07/03 04:19:59;;;;;;;20.05;13.25;;;16.00;99.90;;;;;;5114328;28;20016;-75
2021/07/03 04:22:24;;;;;;;18.77;13.88;;;16.10;99.90;;;;;;5115387;28;20492;-75
2021/07/03 04:24:50;;;;;;;19.10;12.93;;;16.00;99.90;;;;;;5115593;28;20035;-75
2021/07/03 04:27:16;;;;;;;16.25;13.00;;;16.00;99.90;;;;;;5110409;28;20052;-75
2021/07/03 04:29:42;;;;;;;20.92;15.90;;;16.00;99.90;;;;;;5095120;28;20034;-76
2021/07/03 04:32:08;;;;;;;19.55;14.23;;;16.00;99.90;;;;;;5094861;28;20020;-75
2021/07/03 04:34:35;;;;;;;20.17;13.82;;;16.10;99.90;;;;;;5094960;28;20032;-75
2021/07/03 04:37:00;;;;;;;20.92;13.45;;;16.10;99.90;;;;;;5094928;28;20027;-75
2021/07/03 04:39:26;;;;;;;18.63;12.93;;;16.20;99.90;;;;;;5094829;28;20020;-77
2021/07/03 04:41:53;;;;;;;17.05;13.55;;;16.30;99.90;;;;;;5093504;28;20405;-75
2021/07/03 04:44:20;;;;;;;17.15;12.00;;;16.30;99.90;;;;;;5094515;28;20036;-75
2021/07/03 04:46:46;;;;;;;15.90;11.73;;;16.40;99.90;;;;;;5094734;28;20024;-75
2021/07/03 04:49:14;;;;;;;15.05;11.98;;;16.40;99.90;;;;;;5094581;28;20062;-75
2021/07/03 04:51:40;;;;;;;15.90;11.30;;;16.50;99.90;;;;;;5094553;28;20059;-75
2021/07/03 04:54:07;;;;;;;16.60;11.85;;;16.70;99.90;;;;;;5106991;28;20383;-77
2021/07/03 04:56:33;;;;;;;14.00;11.00;;;16.90;99.90;;;;;;5114786;28;20035;-76
2021/07/03 04:58:58;;;;;;;16.50;11.23;;;17.10;99.90;;;;;;5114869;28;20019;-76
2021/07/03 05:01:24;;;;;;;12.88;10.48;;;17.10;99.90;;;;;;5113399;28;20027;-75
2021/07/03 05:03:51;;;;;;;12.77;9.68;;;17.20;99.90;;;;;;5113312;28;20031;-76
2021/07/03 05:06:17;;;;;;;14.95;9.98;;;17.40;99.90;;;;;;5114615;28;20034;-75
2021/07/03 05:08:42;;;;;;;15.40;9.88;;;17.40;99.90;;;;;;5113439;28;20020;-76
2021/07/03 05:11:09;;;;;;;10.63;8.48;;;17.50;99.90;;;;;;5114417;28;20035;-75
2021/07/03 05:13:35;;;;;;;10.98;8.15;;;17.70;99.90;;;;;;5114504;28;20497;-76
2021/07/03 05:16:01;;;;;;;9.43;7.90;;;17.70;99.90;;;;;;5114509;28;20051;-75
2021/07/03 05:18:27;;;;;;;9.13;7.72;;;17.60;99.90;;;;;;5094393;28;20031;-75
2021/07/03 05:20:52;;;;;;;11.98;8.10;;;17.70;99.90;;;;;;5096603;28;20039;-76
2021/07/03 05:23:18;;;;;;;11.43;8.68;;;17.80;99.90;;;;;;5093822;28;20040;-76
2021/07/03 05:25:45;;;;;;;10.18;8.07;;;17.90;99.90;;;;;;5093926;28;20077;-76
2021/07/03 05:28:14;;;;;;;12.13;8.88;;;17.90;99.90;;;;;;5093834;28;20048;-76
2021/07/03 05:30:41;;;;;;;9.50;8.32;;;17.90;99.90;;;;;;5092585;28;20111;-76
2021/07/03 05:33:08;;;;;;;9.63;7.88;;;18.10;99.90;;;;;;5093801;28;20500;-76
2021/07/03 05:35:33;;;;;;;10.70;6.88;;;18.00;99.90;;;;;;5092462;28;20024;-76
2021/07/03 05:37:59;;;;;;;10.30;7.75;;;18.00;99.90;;;;;;5093645;28;20031;-76
2021/07/03 05:40:25;;;;;;;8.85;6.60;;;18.10;99.90;;;;;;5092856;28;20028;-76
2021/07/03 05:42:51;;;;;;;8.85;7.05;;;18.40;99.90;;;;;;5092316;28;20024;-76
2021/07/03 05:45:16;;;;;;;7.97;6.97;;;18.30;99.90;;;;;;5093500;28;20038;-76
2021/07/03 05:47:50;;;;;;;9.43;6.43;;;18.40;99.90;;;;;;5090951;28;20016;-76
2021/07/03 05:50:21;;;;;;;7.10;6.07;;;18.70;99.90;;;;;;5110506;27;20023;-76
2021/07/03 05:52:47;;;;;;;7.00;5.60;;;18.60;97.90;;;;;;5112122;28;20024;-76
2021/07/03 05:55:12;;;;;;;8.48;6.07;;;18.70;97.90;;;;;;5109384;27;20542;-76
2021/07/03 05:57:38;;;;;;;7.03;6.05;;;18.70;96.70;;;;;;5110784;28;20385;-76
2021/07/03 06:00:09;;;;;;;9.23;5.60;;;18.60;94.50;;;;;;5098996;28;20034;-76
2021/07/03 06:02:35;;;;;;;8.23;5.28;;;18.70;94.40;;;;;;5091922;28;20028;-76
2021/07/03 06:05:01;;;;;;;7.10;5.60;;;18.70;94.50;;;;;;5090755;28;20069;-76
2021/07/03 06:07:26;;;;;;;9.38;6.18;;;18.60;95.00;;;;;;5104878;28;20031;-76
2021/07/03 06:09:53;;;;;;;9.82;5.78;;;18.60;95.50;;;;;;5106149;28;20380;-76
2021/07/03 06:12:19;;;;;;;9.10;5.93;;;18.60;95.30;;;;;;5110844;28;20047;-76
2021/07/03 06:14:45;;;;;;;7.40;5.55;;;18.60;94.80;;;;;;5102951;28;20015;-75
2021/07/03 06:17:13;;;;;;;6.80;5.30;;;18.50;96.50;;;;;;5106365;28;20076;-76
2021/07/03 06:19:40;;;;;;;10.50;6.10;;;18.50;94.80;;;;;;5109950;28;20132;-76
2021/07/03 06:22:05;;;;;;;9.70;5.97;;;18.60;96.20;;;;;;5107432;28;20031;-76
2021/07/03 06:24:31;;;;;;;11.70;6.10;;;18.60;96.80;;;;;;5106927;28;20032;-75
2021/07/03 06:26:57;;;;;;;8.60;5.57;;;18.80;96.90;;;;;;5104933;28;20067;-76
2021/07/03 06:29:22;;;;;;;6.82;5.63;;;18.90;95.50;;;;;;5105863;28;20026;-76
2021/07/03 06:31:48;;;;;;;8.05;4.88;;;18.70;93.30;;;;;;5106501;28;20031;-75
2021/07/03 06:34:13;;;;;;;9.13;6.30;;;18.70;94.60;;;;;;5107997;28;20492;-76
2021/07/03 06:36:39;;;;;;;9.38;7.05;;;18.70;95.70;;;;;;5108008;27;20023;-76
2021/07/03 06:39:05;;;;;;;10.98;6.20;;;18.50;96.80;;;;;;5104351;28;20477;-76
2021/07/03 06:41:31;;;;;;;7.25;5.85;;;18.40;96.80;;;;;;5108257;28;20031;-75
2021/07/03 06:43:56;;;;;;;9.45;6.25;;;18.40;96.80;;;;;;5107440;28;20039;-76
2021/07/03 06:46:22;;;;;;;8.90;6.00;;;18.50;97.90;;;;;;5109081;28;20038;-76
2021/07/03 06:48:48;;;;;;;7.45;5.95;;;18.40;96.70;;;;;;5108330;28;20020;-75
2021/07/03 06:51:13;;;;;;;12.88;6.40;;;18.60;98.70;;;;;;5108221;28;20036;-75
2021/07/03 06:53:39;;;;;;;12.63;6.40;;;18.80;94.90;;;;;;5106914;28;20035;-75
2021/07/03 06:56:05;;;;;;;10.50;6.45;;;18.80;93.70;;;;;;5104904;28;20094;-75
2021/07/03 06:58:31;;;;;;;7.32;6.22;;;19.00;90.60;;;;;;5099632;28;20015;-76
2021/07/03 07:00:56;;;;;;;10.70;7.13;;;19.00;92.50;;;;;;5098556;28;20066;-75
2021/07/03 07:03:22;;;;;;;12.13;7.10;;;19.00;92.10;;;;;;5098595;28;20123;-75
2021/07/03 07:05:47;;;;;;;10.18;7.03;;;18.90;91.00;;;;;;5099159;27;20020;-75
2021/07/03 07:08:13;;;;;;;8.10;6.10;;;19.00;90.60;;;;;;5106304;28;20511;-75
2021/07/03 07:10:39;;;;;;;9.15;6.18;;;19.10;89.90;;;;;;5105091;28;20115;-75
2021/07/03 07:13:06;;;;;;;8.02;5.82;;;19.40;88.00;;;;;;5107036;28;20024;-75
2021/07/03 07:15:33;;;;;;;8.50;6.30;;;19.70;89.20;;;;;;5094455;28;20020;-75
2021/07/03 07:17:59;;;;;;;6.30;5.70;;;19.80;88.50;;;;;;5104189;28;20032;-75
2021/07/03 07:20:25;;;;;;;16.80;6.05;;;19.90;87.00;;;;;;5105528;28;20574;-76
2021/07/03 07:22:50;;;;;;;7.70;6.18;;;19.90;84.80;;;;;;5106494;28;20080;-76
2021/07/03 07:25:16;;;;;;;6.45;5.50;;;20.20;84.10;;;;;;5104486;28;20373;-75
2021/07/03 07:27:41;;;;;;;11.85;6.60;;;20.00;82.10;;;;;;5107814;28;20133;-75
2021/07/03 07:30:08;;;;;;;9.80;6.15;;;19.80;81.80;;;;;;5106470;28;20036;-75
2021/07/03 07:32:33;;;;;;;11.60;5.88;;;19.80;84.10;;;;;;5106564;28;20542;-75
2021/07/03 07:34:59;;;;;;;7.60;5.70;;;19.90;85.10;;;;;;5110699;28;20028;-75
2021/07/03 07:37:26;;;;;;;7.07;5.68;;;19.90;85.30;;;;;;5111844;27;20043;-75
2021/07/03 07:39:52;;;;;;;9.30;6.05;;;19.80;82.80;;;;;;5110305;28;20472;-75
2021/07/03 07:42:18;;;;;;;7.85;5.32;;;19.50;82.90;;;;;;5111035;27;20043;-75
2021/07/03 07:44:44;;;;;;;10.77;6.28;;;19.80;84.30;;;;;;5111242;28;20023;-75
2021/07/03 07:47:09;;;;;;;7.35;5.28;;;19.70;82.10;;;;;;5111293;28;20076;-75
2021/07/03 07:49:35;;;;;;;8.35;5.88;;;19.70;83.80;;;;;;5113320;28;20380;-75
2021/07/03 07:52:01;;;;;;;8.85;5.68;;;19.90;84.20;;;;;;5113556;27;20413;-75
2021/07/03 07:54:27;;;;;;;5.70;4.72;;;20.10;82.50;;;;;;5112678;28;20031;-75
2021/07/03 07:56:52;;;;;;;7.60;5.28;;;20.10;80.00;;;;;;5098509;28;20036;-75
2021/07/03 07:59:18;;;;;;;8.25;5.45;;;20.10;79.50;;;;;;5103760;28;20111;-75
2021/07/03 08:01:44;;;;;;;9.15;5.57;;;20.10;77.00;;;;;;5097848;28;20115;-75
2021/07/03 08:04:09;;;;;;;8.40;5.13;;;19.90;75.60;;;;;;5093192;28;20035;-75
2021/07/03 08:06:35;;;;;;;8.80;6.30;;;20.10;77.10;;;;;;5092452;28;20071;-75
2021/07/03 08:09:01;;;;;;;8.20;5.47;;;19.80;76.20;;;;;;5092462;28;20465;-75
2021/07/03 08:11:26;;;;;;;10.00;5.20;;;19.90;77.50;;;;;;5092090;28;20119;-75
2021/07/03 08:13:52;;;;;;;8.27;5.22;;;20.10;78.10;;;;;;5091267;28;20107;-75
2021/07/03 08:16:18;;;;;;;7.32;4.93;;;20.20;78.80;;;;;;5087964;28;20035;-75
2021/07/03 08:18:43;;;;;;;8.52;6.13;;;20.30;80.30;;;;;;5111373;28;20069;-75
2021/07/03 08:21:09;;;;;;;10.95;5.15;;;20.20;78.90;;;;;;5113086;27;20080;-76
2021/07/03 08:23:35;;;;;;;9.18;6.00;;;20.20;80.60;;;;;;5113390;28;20116;-74
2021/07/03 08:26:01;;;;;;;7.43;5.88;;;19.90;82.50;;;;;;5111830;28;20095;-75
2021/07/03 08:28:26;;;;;;;10.77;6.28;;;19.80;83.10;;;;;;5107576;28;20077;-75
2021/07/03 08:30:52;;;;;;;10.15;6.63;;;19.50;84.60;;;;;;5103682;28;20042;-75
2021/07/03 08:33:18;;;;;;;7.55;6.25;;;19.30;88.60;;;;;;5113218;27;20385;-75
2021/07/03 08:35:43;;;;;;;8.25;6.38;;;19.30;89.10;;;;;;5112507;28;20380;-75
2021/07/03 08:38:09;;;;;;;9.27;6.43;;;19.40;89.30;;;;;;5112098;27;20466;-75
2021/07/03 08:40:35;;;;;;;11.95;7.15;;;19.60;89.30;;;;;;5109047;28;20024;-76
2021/07/03 08:43:00;;;;;;;6.43;5.75;;;20.20;87.40;;;;;;5107166;28;20047;-75
2021/07/03 08:45:26;;;;;;;10.10;6.28;;;20.40;84.00;;;;;;5107928;28;20033;-75
2021/07/03 08:47:52;;;;;;;9.77;6.60;;;20.30;82.40;;;;;;5112171;27;20039;-76
2021/07/03 08:50:19;;;;;;;11.95;6.93;;;20.10;82.00;;;;;;5111782;28;20028;-76
2021/07/03 08:52:45;;;;;;;9.77;6.38;;;20.00;81.50;;;;;;5111403;28;20112;-75
2021/07/03 08:55:25;;;;;;;7.88;6.43;;;19.80;83.40;;;;;;5111074;28;20465;-76
2021/07/03 08:57:58;;;;;;;10.35;6.30;;;19.70;83.90;;;;;;5101455;27;20469;-76
2021/07/03 09:00:36;;;;;;;9.18;6.47;;;19.60;85.00;;;;;;5103241;28;20044;-76
2021/07/03 09:03:21;;;;;;;11.48;6.95;;;19.70;86.10;;;;;;5110199;27;20169;-76
2021/07/03 09:05:54;;;;;;;10.27;6.57;;;19.80;85.40;;;;;;5111364;28;20469;-76
2021/07/03 09:08:25;;;;;;;8.88;6.40;;;19.90;85.20;;;;;;5096138;28;20032;-76
2021/07/03 09:11:04;;;;;;;9.77;6.13;;;19.90;83.70;;;;;;5108314;28;20354;-76
2021/07/03 09:13:31;;;;;;;9.85;6.18;;;19.70;81.00;;;;;;5106745;28;20038;-76
2021/07/03 09:15:57;;;;;;;15.15;6.35;;;19.50;80.10;;;;;;5110526;28;20077;-76
2021/07/03 09:18:22;;;;;;;8.88;5.65;;;19.50;81.50;;;;;;5110643;28;20020;-76
2021/07/03 09:20:50;;;;;;;7.93;5.60;;;19.50;82.70;;;;;;5108532;28;20016;-76
2021/07/03 09:23:31;;;;;;;8.75;6.60;;;19.50;81.50;;;;;;5110477;28;20036;-76
2021/07/03 09:25:59;;;;;;;10.90;6.40;;;19.60;82.60;;;;;;5108607;27;20027;-76
2021/07/03 09:28:33;;;;;;;11.88;6.70;;;19.70;83.20;;;;;;5104808;28;20054;-76
2021/07/03 09:31:01;;;;;;;7.93;5.95;;;19.90;83.80;;;;;;5106609;28;20026;-76
2021/07/03 09:33:32;;;;;;;11.90;6.53;;;19.90;78.00;;;;;;5111842;28;20091;-76
2021/07/03 09:36:07;;;;;;;8.80;5.57;;;19.80;76.40;;;;;;5114172;28;20058;-75
2021/07/03 09:38:36;;;;;;;10.25;5.80;;;20.00;77.70;;;;;;5108667;28;20445;-76
2021/07/03 09:41:17;;;;;;;9.25;5.47;;;20.00;75.00;;;;;;5110084;28;20024;-76
2021/07/03 09:43:48;;;;;;;5.57;4.80;;;20.20;75.80;;;;;;5110440;28;20042;-76
2021/07/03 09:46:51;;;;;;;9.20;6.50;;;20.30;76.50;;;;;;5110149;28;20096;-76
2021/07/03 09:49:19;;;;;;;7.60;5.45;;;20.50;74.90;;;;;;5111803;28;20019;-76
2021/07/03 09:51:48;;;;;;;7.93;6.50;;;20.40;74.20;;;;;;5111379;28;20461;-76
2021/07/03 09:54:17;;;;;;;9.43;5.38;;;20.70;75.20;;;;;;5110846;28;21099;-76
2021/07/03 09:56:43;;;;;;;12.05;5.80;;;20.70;73.20;;;;;;5110639;27;20473;-76
2021/07/03 09:59:10;;;;;;;9.82;6.03;;;20.90;73.30;;;;;;5105822;28;20080;-75
2021/07/03 10:01:40;;;;;;;5.80;5.22;;;21.00;72.80;;;;;;5103833;27;20024;-75
2021/07/03 10:04:08;;;;;;;6.85;5.13;;;21.00;69.10;;;;;;5107677;28;20045;-76
2021/07/03 10:06:55;;;;;;;8.43;5.10;;;20.80;70.60;;;;;;5108628;27;20047;-75
2021/07/03 10:09:31;;;;;;;6.80;4.60;;;20.90;72.90;;;;;;5106159;28;20019;-76
2021/07/03 10:12:03;;;;;;;12.52;5.75;;;20.90;72.70;;;;;;5103254;28;20122;-74
2021/07/03 10:14:45;;;;;;;7.32;5.30;;;20.80;71.80;;;;;;5108480;28;20043;-74
2021/07/03 10:17:11;;;;;;;7.68;5.45;;;20.80;69.40;;;;;;5105355;28;20043;-77
2021/07/03 10:19:39;;;;;;;7.88;5.60;;;20.80;70.70;;;;;;5108462;28;20063;-77
2021/07/03 10:22:20;;;;;;;6.93;6.07;;;20.90;70.70;;;;;;5108661;27;20043;-76
2021/07/03 10:24:52;;;;;;;8.57;5.72;;;21.00;71.90;;;;;;5107968;28;20130;-76
2021/07/03 10:27:26;;;;;;;8.50;5.10;;;21.00;70.60;;;;;;5107270;28;20059;-76
2021/07/03 10:29:54;;;;;;;8.48;5.47;;;21.00;69.60;;;;;;5107910;28;20027;-77
2021/07/03 10:32:33;;;;;;;7.32;5.97;;;21.10;71.60;;;;;;5109294;27;20043;-76
2021/07/03 10:35:13;;;;;;;8.45;5.63;;;21.10;71.00;;;;;;5108814;28;20035;-77
2021/07/03 10:37:39;;;;;;;7.15;5.68;;;21.20;71.20;;;;;;5109878;28;20039;-76
2021/07/03 10:40:19;;;;;;;9.48;6.15;;;21.30;70.90;;;;;;5109567;28;20019;-78
2021/07/03 10:42:46;;;;;;;7.20;5.30;;;21.30;68.40;;;;;;5110173;28;20492;-76
2021/07/03 10:45:23;;;;;;;9.48;5.38;;;21.40;67.10;;;;;;5105889;28;20718;-77
2021/07/03 10:47:49;;;;;;;7.38;5.72;;;21.50;68.60;;;;;;5109733;27;20396;-76
2021/07/03 10:50:19;;;;;;;9.05;5.55;;;21.50;68.40;;;;;;5109255;28;20026;-76
2021/07/03 10:52:45;;;;;;;5.57;5.00;;;21.50;66.70;;;;;;5110041;27;20042;-75
2021/07/03 10:55:11;;;;;;;8.93;5.60;;;21.40;66.40;;;;;;5110680;28;20020;-75
2021/07/03 10:57:44;;;;;;;9.63;6.20;;;21.30;68.00;;;;;;5109950;28;20034;-75
2021/07/03 11:00:12;;;;;;;10.18;6.28;;;21.20;67.40;;;;;;5104529;28;20411;-74
2021/07/03 11:02:39;;;;;;;8.00;5.57;;;21.00;67.90;;;;;;5093713;28;20123;-73
2021/07/03 11:05:14;;;;;;;9.15;6.68;;;21.00;68.70;;;;;;5090134;28;20089;-73
2021/07/03 11:07:42;;;;;;;10.45;7.45;;;21.00;69.30;;;;;;5090714;28;20513;-74
2021/07/03 11:10:14;;;;;;;7.30;6.32;;;21.10;69.90;;;;;;5108698;28;20028;-74
2021/07/03 11:12:47;;;;;;;10.10;6.53;;;21.00;69.00;;;;;;5111982;28;20028;-76
2021/07/03 11:15:14;;;;;;;11.60;6.50;;;21.10;70.10;;;;;;5112239;28;20356;-77
2021/07/03 11:17:40;;;;;;;12.73;7.43;;;21.20;70.80;;;;;;5111430;27;20045;-77
2021/07/03 11:20:07;;;;;;;8.88;6.20;;;21.30;69.60;;;;;;5112422;28;20020;-77
2021/07/03 11:22:32;;;;;;;8.38;5.85;;;21.30;68.40;;;;;;5112557;28;20047;-76
2021/07/03 11:24:59;;;;;;;8.40;6.15;;;21.30;68.70;;;;;;5110883;28;20028;-77
2021/07/03 11:27:25;;;;;;;7.82;6.22;;;21.30;68.70;;;;;;5111529;28;20609;-77
2021/07/03 11:29:51;;;;;;;8.85;6.47;;;21.30;68.90;;;;;;5111154;28;20016;-77
2021/07/03 11:32:17;;;;;;;10.38;6.65;;;21.40;69.70;;;;;;5110910;27;20016;-77
2021/07/03 11:34:54;;;;;;;10.85;6.45;;;21.50;69.10;;;;;;5110011;28;20024;-77
2021/07/03 11:37:34;;;;;;;10.02;6.40;;;21.70;69.60;;;;;;5111160;27;20028;-77
2021/07/03 11:40:05;;;;;;;9.32;6.53;;;21.80;69.80;;;;;;5103733;28;20107;-77
2021/07/03 11:42:36;;;;;;;9.03;6.73;;;21.70;68.90;;;;;;5092694;28;20028;-78
2021/07/03 11:45:07;;;;;;;8.65;7.78;;;21.40;68.40;;;;;;5105256;28;20316;-77
2021/07/03 11:47:32;;;;;;;10.20;6.90;;;21.40;71.00;;;;;;5114219;28;20103;-77
2021/07/03 11:49:58;;;;;;;8.65;6.85;;;21.00;70.20;;;;;;5113493;28;20473;-77
2021/07/03 11:52:24;;;;;;;8.02;6.82;;;20.90;70.10;;;;;;5113733;27;20016;-77
2021/07/03 11:54:49;;;;;;;10.40;6.43;;;20.70;68.90;;;;;;5114375;28;20103;-77
2021/07/03 11:57:18;;;;;;;8.98;7.03;;;20.50;69.40;;;;;;5096107;28;20512;-77
2021/07/03 11:59:44;;;;;;;8.32;6.82;;;20.40;69.20;;;;;;5094159;28;20095;-77
2021/07/03 12:02:09;;;;;;;9.88;7.68;;;20.30;70.60;;;;;;5087920;28;20095;-76
2021/07/03 12:04:36;;;;;;;12.00;7.22;;;20.20;71.90;;;;;;5093945;28;20051;-76
2021/07/03 12:07:02;;;;;;;11.82;7.97;;;20.20;74.90;;;;;;5091348;28;20027;-76
2021/07/03 12:09:35;;;;;;;10.77;7.07;;;20.20;76.50;;;;;;5092532;28;20028;-77
2021/07/03 12:12:01;;;;;;;7.75;6.80;;;20.20;76.80;;;;;;5093206;28;20032;-76
2021/07/03 12:14:28;;;;;;;12.40;8.43;;;20.20;75.00;;;;;;5098625;28;20042;-76
2021/07/03 12:16:58;;;;;;;13.98;8.07;;;20.20;75.90;;;;;;5091619;28;20013;-77
2021/07/03 12:19:56;;;;;;;10.07;7.53;;;20.30;75.60;;;;;;5091331;28;20029;-77
2021/07/03 12:22:22;;;;;;;10.55;6.90;;;20.20;76.60;;;;;;5092784;28;20039;-76
2021/07/03 12:24:47;;;;;;;17.65;8.82;;;19.90;74.20;;;;;;5098565;28;20043;-76
2021/07/03 12:27:22;;;;;;;9.65;8.32;;;19.80;77.20;;;;;;5108216;28;20049;-75
2021/07/03 12:29:47;;;;;;;15.25;8.65;;;19.60;80.50;;;;;;5111980;27;20035;-76
2021/07/03 12:32:13;;;;;;;10.32;8.95;;;19.50;85.10;;;;;;5110555;28;20441;-76
2021/07/03 12:34:40;;;;;;;14.77;11.80;;;19.30;89.80;;;;;;5101874;27;20536;-76
2021/07/03 12:37:11;;;;;;;12.27;10.82;;;19.10;94.00;;;;;;5111438;28;20155;-75
2021/07/03 12:39:39;;;;;;;14.05;10.68;;;18.70;99.40;;;;;;5111330;28;20047;-75